Kaami — C6VO9 — position and weather

sailwx.info

Track history (hours):
 
Tides and Currents Weather Stations Pressure Air Temp Water Temp Dewpoint Dewpoint Depression Visibility Wind Speed Wind Dir Waves Ship Positions

Kaami

Last reported at 2016-May-02 11:31 UTC. Time now 2016-May-03 14:22 UTC.
Position N 49°04' W 005°25'.

Length 90 m; draft 5.8 m.

Type: Cargo ship. MMSI: 308542000.

Date/timePositionNaut miles runAvg speedWind from/ knotsBaromVisibWave heightAir tempDewpointWater temp
2016-May-02 11:31N 49°04' W 005°25'43 8.1
2016-May-02 06:13N 49°26' W 004°28'6 8.9
2016-May-02 05:33N 49°29' W 004°21'36 8.2
2016-May-02 01:10N 49°47' W 003°32'5 7.8
2016-May-02 00:33N 49°49' W 003°26'8 8.1
2016-May-01 23:33N 49°54' W 003°15'9 8.7
2016-May-01 22:33N 49°58' W 003°03'9 9.4
2016-May-01 21:33N 50°02' W 002°50'96 8.7
2016-May-01 10:31N 50°28' W 000°26'1110.6
2016-May-01 09:30N 50°31' W 000°10'1010.6
2016-May-01 08:33N 50°34' E 000°05'1010.5
2016-May-01 07:33N 50°37' E 000°21'38 9.5
2016-May-01 03:33N 50°57' E 001°12'1010.0
2016-May-01 02:33N 51°03' E 001°24'1211.7
2016-May-01 01:33N 51°11' E 001°39'1111.2
2016-May-01 00:33N 51°19' E 001°51'1110.6
2016-Apr-30 23:33N 51°27' E 002°01'10 9.8
2016-Apr-30 22:33N 51°34' E 002°12'69 8.6
2016-Apr-30 14:33N 52°02' E 003°54'10 9.9
2016-Apr-30 13:33N 51°58' E 004°09'7 6.9
2016-Apr-30 12:33N 51°53' E 004°17'0 0.0
2016-Apr-30 11:34N 51°53' E 004°17'0 0.0
2016-Apr-30 10:33N 51°53' E 004°17'0 0.0
2016-Apr-30 09:33N 51°53' E 004°17'0 0.0
2016-Apr-30 08:30N 51°53' E 004°17'0 0.0
2016-Apr-30 07:33N 51°53' E 004°17'0 0.0
2016-Apr-30 06:33N 51°53' E 004°17'0 0.0
2016-Apr-30 05:33N 51°53' E 004°17'0 0.0
2016-Apr-30 04:33N 51°53' E 004°17'0 0.0
2016-Apr-30 03:33N 51°53' E 004°17'0 0.0
2016-Apr-30 02:30N 51°53' E 004°17'0 0.0
2016-Apr-30 01:33N 51°53' E 004°17'0 0.0
2016-Apr-30 00:33N 51°53' E 004°17'0 0.0
2016-Apr-29 23:33N 51°53' E 004°17'0 0.0
2016-Apr-29 22:33N 51°53' E 004°17'0 0.0
2016-Apr-29 21:33N 51°53' E 004°17'0 0.0
2016-Apr-29 20:33N 51°53' E 004°17'0 0.0
2016-Apr-29 19:33N 51°53' E 004°17'0 0.0
2016-Apr-29 18:33N 51°53' E 004°17'0 0.0
2016-Apr-29 17:33N 51°53' E 004°17'0 0.0
2016-Apr-29 16:33N 51°53' E 004°17'0 0.0
2016-Apr-29 15:27N 51°53' E 004°17'0 0.0
2016-Apr-29 14:33N 51°53' E 004°17'0 0.0
2016-Apr-29 13:33N 51°53' E 004°17'0 0.0
2016-Apr-29 12:33N 51°53' E 004°17'0 0.0
2016-Apr-29 11:33N 51°53' E 004°17'0 0.0
2016-Apr-29 10:33N 51°53' E 004°17'0 0.0
2016-Apr-29 09:33N 51°53' E 004°17'0 0.0
2016-Apr-29 08:33N 51°53' E 004°17'0 0.0
2016-Apr-29 07:33N 51°53' E 004°17'0 0.0
2016-Apr-29 06:33N 51°53' E 004°17'0 0.0
2016-Apr-29 05:33N 51°53' E 004°17'0 0.0
2016-Apr-29 04:33N 51°53' E 004°17'0 0.0
2016-Apr-29 03:33N 51°53' E 004°17'0 0.0
2016-Apr-29 02:33N 51°53' E 004°17'0 0.0
2016-Apr-29 01:23N 51°53' E 004°17'0 0.0
2016-Apr-29 00:32N 51°53' E 004°17'0 0.0
2016-Apr-28 23:32N 51°53' E 004°17'0 0.0
2016-Apr-28 22:32N 51°53' E 004°17'0 0.0
2016-Apr-28 21:32N 51°53' E 004°17'0 0.0
2016-Apr-28 20:32N 51°53' E 004°17'0 0.0
2016-Apr-28 19:32N 51°53' E 004°17'0 0.0
2016-Apr-28 18:32N 51°53' E 004°17'0 0.0
2016-Apr-28 17:32N 51°53' E 004°17'0 0.0
2016-Apr-28 16:32N 51°53' E 004°17'0 0.0
2016-Apr-28 15:32N 51°53' E 004°17'0 0.0
2016-Apr-28 14:32N 51°53' E 004°17'0 0.0
2016-Apr-28 13:32N 51°53' E 004°17'0 0.0
2016-Apr-28 12:29N 51°53' E 004°17'0 0.0
2016-Apr-28 11:32N 51°53' E 004°17'1 1.2
2016-Apr-28 10:33N 51°53' E 004°19'6 6.0
2016-Apr-28 09:34N 51°54' E 004°28'0 0.0
2016-Apr-28 08:33N 51°54' E 004°28'0 0.0
2016-Apr-28 07:33N 51°54' E 004°28'0 0.0
2016-Apr-28 06:33N 51°54' E 004°28'0 0.0
2016-Apr-28 05:33N 51°54' E 004°28'0 0.0
2016-Apr-28 04:33N 51°54' E 004°28'0 0.0
2016-Apr-28 03:33N 51°54' E 004°28'0 0.0
2016-Apr-28 02:33N 51°54' E 004°28'0 0.0
2016-Apr-28 01:33N 51°54' E 004°28'0 0.0
2016-Apr-28 00:33N 51°54' E 004°28'0 0.0
2016-Apr-27 23:30N 51°54' E 004°28'0 0.0
2016-Apr-27 22:33N 51°54' E 004°28'0 0.0
2016-Apr-27 21:33N 51°54' E 004°28'0 0.0
2016-Apr-27 20:33N 51°54' E 004°28'0 0.0
2016-Apr-27 19:33N 51°54' E 004°28'0 0.0
2016-Apr-27 18:33N 51°54' E 004°28'0 0.0
2016-Apr-27 17:33N 51°54' E 004°28'0 0.0
2016-Apr-27 16:33N 51°54' E 004°28'0 0.0
2016-Apr-27 15:33N 51°54' E 004°28'0 0.0
2016-Apr-27 14:33N 51°54' E 004°28'0 0.0
2016-Apr-27 13:33N 51°54' E 004°28'0 0.0
2016-Apr-27 12:33N 51°54' E 004°28'0 0.0
2016-Apr-27 11:33N 51°54' E 004°28'0 0.0
2016-Apr-27 10:33N 51°54' E 004°28'0 0.0
2016-Apr-27 09:33N 51°54' E 004°28'0 0.0
2016-Apr-27 08:33N 51°54' E 004°28'0 0.0
2016-Apr-27 07:33N 51°54' E 004°28'0 0.0
2016-Apr-27 06:33N 51°54' E 004°28'0 0.0
2016-Apr-27 05:33N 51°54' E 004°28'0 0.0
2016-Apr-27 04:33N 51°54' E 004°28'0 0.0
2016-Apr-27 03:33N 51°54' E 004°28'0 0.0
2016-Apr-27 02:33N 51°54' E 004°28'0 0.0
2016-Apr-27 01:33N 51°54' E 004°28'0 0.0
2016-Apr-27 00:32N 51°54' E 004°28'0 0.0
2016-Apr-26 23:32N 51°54' E 004°28'0 0.0
2016-Apr-26 22:32N 51°54' E 004°28'0 0.0
2016-Apr-26 21:32N 51°54' E 004°28'0 0.0
2016-Apr-26 20:32N 51°54' E 004°28'0 0.0
2016-Apr-26 19:32N 51°54' E 004°28'0 0.0
2016-Apr-26 18:32N 51°54' E 004°28'0 0.0
2016-Apr-26 17:32N 51°54' E 004°28'0 0.0
2016-Apr-26 16:32N 51°54' E 004°28'0 0.0
2016-Apr-26 15:32N 51°54' E 004°28'0 0.0
2016-Apr-26 14:32N 51°54' E 004°28'0 0.0
2016-Apr-26 13:32N 51°54' E 004°28'0 0.0
2016-Apr-26 12:32N 51°54' E 004°28'0 0.0
2016-Apr-26 11:32N 51°54' E 004°28'0 0.0
2016-Apr-26 10:32N 51°54' E 004°28'0 0.0
2016-Apr-26 09:32N 51°54' E 004°28'0 0.0
2016-Apr-26 08:32N 51°54' E 004°28'0 0.0
2016-Apr-26 07:32N 51°54' E 004°28'0 0.0
2016-Apr-26 06:32N 51°54' E 004°28'0 0.0
2016-Apr-26 05:32N 51°54' E 004°28'0 0.0
2016-Apr-26 04:33N 51°54' E 004°28'0 0.0
2016-Apr-26 03:33N 51°54' E 004°28'0 0.0
2016-Apr-26 02:33N 51°54' E 004°28'0 0.0
2016-Apr-26 01:33N 51°54' E 004°28'0 0.0
2016-Apr-26 00:33N 51°54' E 004°28'0 0.0
2016-Apr-25 23:33N 51°54' E 004°28'0 0.0
2016-Apr-25 22:33N 51°54' E 004°28'0 0.0
2016-Apr-25 21:33N 51°54' E 004°28'0 0.0
2016-Apr-25 20:33N 51°54' E 004°28'0 0.0
2016-Apr-25 19:33N 51°54' E 004°28'0 0.0
2016-Apr-25 18:33N 51°54' E 004°28'0 0.0
2016-Apr-25 17:33N 51°54' E 004°28'3 3.4
2016-Apr-25 16:33N 51°54' E 004°23'4 3.7
2016-Apr-25 15:33N 51°53' E 004°17'0 0.0
2016-Apr-25 14:33N 51°53' E 004°17'0 0.0
2016-Apr-25 13:33N 51°53' E 004°17'0 0.0
2016-Apr-25 12:33N 51°53' E 004°17'0 0.0
2016-Apr-25 11:33N 51°53' E 004°17'0 0.0
2016-Apr-25 10:33N 51°53' E 004°17'0 0.0
2016-Apr-25 09:33N 51°53' E 004°17'0 0.0
2016-Apr-25 08:33N 51°53' E 004°17'0 0.0
2016-Apr-25 07:33N 51°53' E 004°17'0 0.0
2016-Apr-25 06:33N 51°53' E 004°17'0 0.0
2016-Apr-25 05:33N 51°53' E 004°17'0 0.0
2016-Apr-25 04:33N 51°53' E 004°17'0 0.0
2016-Apr-25 03:33N 51°53' E 004°17'0 0.0
2016-Apr-25 02:34N 51°53' E 004°17'0 0.0
2016-Apr-25 01:33N 51°53' E 004°17'0 0.0
2016-Apr-25 00:33N 51°53' E 004°17'0 0.0
2016-Apr-24 23:33N 51°53' E 004°17'0 0.0
2016-Apr-24 22:33N 51°53' E 004°17'0 0.0
2016-Apr-24 21:33N 51°53' E 004°17'0 0.0
2016-Apr-24 20:33N 51°53' E 004°17'0 0.0
2016-Apr-24 19:33N 51°53' E 004°17'0 0.0
2016-Apr-24 18:33N 51°53' E 004°17'0 0.0
2016-Apr-24 17:33N 51°53' E 004°17'0 0.0
2016-Apr-24 16:33N 51°53' E 004°17'0 0.0
2016-Apr-24 15:33N 51°53' E 004°17'1 0.8
2016-Apr-24 14:33N 51°54' E 004°16'9 9.1
2016-Apr-24 13:34N 51°59' E 004°04'8 8.0
2016-Apr-24 12:33N 52°00' E 003°51'7 6.8
2016-Apr-24 11:33N 52°07' E 003°46'9 9.0
2016-Apr-24 10:33N 52°16' E 003°47'115 6.7
2016-Apr-23 17:22N 54°02' E 004°58'5 5.9
2016-Apr-23 16:32N 54°07' E 005°01'6 6.3
2016-Apr-23 15:33N 54°12' E 005°06'7 6.7
2016-Apr-23 14:33N 54°18' E 005°12'7 6.5
2016-Apr-23 13:32N 54°23' E 005°18'6 6.4
2016-Apr-23 12:33N 54°29' E 005°24'  
Track history (hours):
 
Tides and Currents Weather Stations Pressure Air Temp Water Temp Dewpoint Dewpoint Depression Visibility Wind Speed Wind Dir Waves Ship Positions

Kaami

Last reported at 2016-May-02 11:31 UTC. Time now 2016-May-03 14:22 UTC.
Position N 49°04' W 005°25'.

Length 90 m; draft 5.8 m.

Type: Cargo ship. MMSI: 308542000.

Date/timePositionNaut miles runAvg speedWind from/ knotsBaromVisibWave heightAir tempDewpointWater temp
2016-May-02 11:31N 49°04' W 005°25'43 8.1
2016-May-02 06:13N 49°26' W 004°28'6 8.9
2016-May-02 05:33N 49°29' W 004°21'36 8.2
2016-May-02 01:10N 49°47' W 003°32'5 7.8
2016-May-02 00:33N 49°49' W 003°26'8 8.1
2016-May-01 23:33N 49°54' W 003°15'9 8.7
2016-May-01 22:33N 49°58' W 003°03'9 9.4
2016-May-01 21:33N 50°02' W 002°50'96 8.7
2016-May-01 10:31N 50°28' W 000°26'1110.6
2016-May-01 09:30N 50°31' W 000°10'1010.6
2016-May-01 08:33N 50°34' E 000°05'1010.5
2016-May-01 07:33N 50°37' E 000°21'38 9.5
2016-May-01 03:33N 50°57' E 001°12'1010.0
2016-May-01 02:33N 51°03' E 001°24'1211.7
2016-May-01 01:33N 51°11' E 001°39'1111.2
2016-May-01 00:33N 51°19' E 001°51'1110.6
2016-Apr-30 23:33N 51°27' E 002°01'10 9.8
2016-Apr-30 22:33N 51°34' E 002°12'69 8.6
2016-Apr-30 14:33N 52°02' E 003°54'10 9.9
2016-Apr-30 13:33N 51°58' E 004°09'7 6.9
2016-Apr-30 12:33N 51°53' E 004°17'0 0.0
2016-Apr-30 11:34N 51°53' E 004°17'0 0.0
2016-Apr-30 10:33N 51°53' E 004°17'0 0.0
2016-Apr-30 09:33N 51°53' E 004°17'0 0.0
2016-Apr-30 08:30N 51°53' E 004°17'0 0.0
2016-Apr-30 07:33N 51°53' E 004°17'0 0.0
2016-Apr-30 06:33N 51°53' E 004°17'0 0.0
2016-Apr-30 05:33N 51°53' E 004°17'0 0.0
2016-Apr-30 04:33N 51°53' E 004°17'0 0.0
2016-Apr-30 03:33N 51°53' E 004°17'0 0.0
2016-Apr-30 02:30N 51°53' E 004°17'0 0.0
2016-Apr-30 01:33N 51°53' E 004°17'0 0.0
2016-Apr-30 00:33N 51°53' E 004°17'0 0.0
2016-Apr-29 23:33N 51°53' E 004°17'0 0.0
2016-Apr-29 22:33N 51°53' E 004°17'0 0.0
2016-Apr-29 21:33N 51°53' E 004°17'0 0.0
2016-Apr-29 20:33N 51°53' E 004°17'0 0.0
2016-Apr-29 19:33N 51°53' E 004°17'0 0.0
2016-Apr-29 18:33N 51°53' E 004°17'0 0.0
2016-Apr-29 17:33N 51°53' E 004°17'0 0.0
2016-Apr-29 16:33N 51°53' E 004°17'0 0.0
2016-Apr-29 15:27N 51°53' E 004°17'0 0.0
2016-Apr-29 14:33N 51°53' E 004°17'0 0.0
2016-Apr-29 13:33N 51°53' E 004°17'0 0.0
2016-Apr-29 12:33N 51°53' E 004°17'0 0.0
2016-Apr-29 11:33N 51°53' E 004°17'0 0.0
2016-Apr-29 10:33N 51°53' E 004°17'0 0.0
2016-Apr-29 09:33N 51°53' E 004°17'0 0.0
2016-Apr-29 08:33N 51°53' E 004°17'0 0.0
2016-Apr-29 07:33N 51°53' E 004°17'0 0.0
2016-Apr-29 06:33N 51°53' E 004°17'0 0.0
2016-Apr-29 05:33N 51°53' E 004°17'0 0.0
2016-Apr-29 04:33N 51°53' E 004°17'0 0.0
2016-Apr-29 03:33N 51°53' E 004°17'0 0.0
2016-Apr-29 02:33N 51°53' E 004°17'0 0.0
2016-Apr-29 01:23N 51°53' E 004°17'0 0.0
2016-Apr-29 00:32N 51°53' E 004°17'0 0.0
2016-Apr-28 23:32N 51°53' E 004°17'0 0.0
2016-Apr-28 22:32N 51°53' E 004°17'0 0.0
2016-Apr-28 21:32N 51°53' E 004°17'0 0.0
2016-Apr-28 20:32N 51°53' E 004°17'0 0.0
2016-Apr-28 19:32N 51°53' E 004°17'0 0.0
2016-Apr-28 18:32N 51°53' E 004°17'0 0.0
2016-Apr-28 17:32N 51°53' E 004°17'0 0.0
2016-Apr-28 16:32N 51°53' E 004°17'0 0.0
2016-Apr-28 15:32N 51°53' E 004°17'0 0.0
2016-Apr-28 14:32N 51°53' E 004°17'0 0.0
2016-Apr-28 13:32N 51°53' E 004°17'0 0.0
2016-Apr-28 12:29N 51°53' E 004°17'0 0.0
2016-Apr-28 11:32N 51°53' E 004°17'1 1.2
2016-Apr-28 10:33N 51°53' E 004°19'6 6.0
2016-Apr-28 09:34N 51°54' E 004°28'0 0.0
2016-Apr-28 08:33N 51°54' E 004°28'0 0.0
2016-Apr-28 07:33N 51°54' E 004°28'0 0.0
2016-Apr-28 06:33N 51°54' E 004°28'0 0.0
2016-Apr-28 05:33N 51°54' E 004°28'0 0.0
2016-Apr-28 04:33N 51°54' E 004°28'0 0.0
2016-Apr-28 03:33N 51°54' E 004°28'0 0.0
2016-Apr-28 02:33N 51°54' E 004°28'0 0.0
2016-Apr-28 01:33N 51°54' E 004°28'0 0.0
2016-Apr-28 00:33N 51°54' E 004°28'0 0.0
2016-Apr-27 23:30N 51°54' E 004°28'0 0.0
2016-Apr-27 22:33N 51°54' E 004°28'0 0.0
2016-Apr-27 21:33N 51°54' E 004°28'0 0.0
2016-Apr-27 20:33N 51°54' E 004°28'0 0.0
2016-Apr-27 19:33N 51°54' E 004°28'0 0.0
2016-Apr-27 18:33N 51°54' E 004°28'0 0.0
2016-Apr-27 17:33N 51°54' E 004°28'0 0.0
2016-Apr-27 16:33N 51°54' E 004°28'0 0.0
2016-Apr-27 15:33N 51°54' E 004°28'0 0.0
2016-Apr-27 14:33N 51°54' E 004°28'0 0.0
2016-Apr-27 13:33N 51°54' E 004°28'0 0.0
2016-Apr-27 12:33N 51°54' E 004°28'0 0.0
2016-Apr-27 11:33N 51°54' E 004°28'0 0.0
2016-Apr-27 10:33N 51°54' E 004°28'0 0.0
2016-Apr-27 09:33N 51°54' E 004°28'0 0.0
2016-Apr-27 08:33N 51°54' E 004°28'0 0.0
2016-Apr-27 07:33N 51°54' E 004°28'0 0.0
2016-Apr-27 06:33N 51°54' E 004°28'0 0.0
2016-Apr-27 05:33N 51°54' E 004°28'0 0.0
2016-Apr-27 04:33N 51°54' E 004°28'0 0.0
2016-Apr-27 03:33N 51°54' E 004°28'0 0.0
2016-Apr-27 02:33N 51°54' E 004°28'0 0.0
2016-Apr-27 01:33N 51°54' E 004°28'0 0.0
2016-Apr-27 00:32N 51°54' E 004°28'0 0.0
2016-Apr-26 23:32N 51°54' E 004°28'0 0.0
2016-Apr-26 22:32N 51°54' E 004°28'0 0.0
2016-Apr-26 21:32N 51°54' E 004°28'0 0.0
2016-Apr-26 20:32N 51°54' E 004°28'0 0.0
2016-Apr-26 19:32N 51°54' E 004°28'0 0.0
2016-Apr-26 18:32N 51°54' E 004°28'0 0.0
2016-Apr-26 17:32N 51°54' E 004°28'0 0.0
2016-Apr-26 16:32N 51°54' E 004°28'0 0.0
2016-Apr-26 15:32N 51°54' E 004°28'0 0.0
2016-Apr-26 14:32N 51°54' E 004°28'0 0.0
2016-Apr-26 13:32N 51°54' E 004°28'0 0.0
2016-Apr-26 12:32N 51°54' E 004°28'0 0.0
2016-Apr-26 11:32N 51°54' E 004°28'0 0.0
2016-Apr-26 10:32N 51°54' E 004°28'0 0.0
2016-Apr-26 09:32N 51°54' E 004°28'0 0.0
2016-Apr-26 08:32N 51°54' E 004°28'0 0.0
2016-Apr-26 07:32N 51°54' E 004°28'0 0.0
2016-Apr-26 06:32N 51°54' E 004°28'0 0.0
2016-Apr-26 05:32N 51°54' E 004°28'0 0.0
2016-Apr-26 04:33N 51°54' E 004°28'0 0.0
2016-Apr-26 03:33N 51°54' E 004°28'0 0.0
2016-Apr-26 02:33N 51°54' E 004°28'0 0.0
2016-Apr-26 01:33N 51°54' E 004°28'0 0.0
2016-Apr-26 00:33N 51°54' E 004°28'0 0.0
2016-Apr-25 23:33N 51°54' E 004°28'0 0.0
2016-Apr-25 22:33N 51°54' E 004°28'0 0.0
2016-Apr-25 21:33N 51°54' E 004°28'0 0.0
2016-Apr-25 20:33N 51°54' E 004°28'0 0.0
2016-Apr-25 19:33N 51°54' E 004°28'0 0.0
2016-Apr-25 18:33N 51°54' E 004°28'0 0.0
2016-Apr-25 17:33N 51°54' E 004°28'3 3.4
2016-Apr-25 16:33N 51°54' E 004°23'4 3.7
2016-Apr-25 15:33N 51°53' E 004°17'0 0.0
2016-Apr-25 14:33N 51°53' E 004°17'0 0.0
2016-Apr-25 13:33N 51°53' E 004°17'0 0.0
2016-Apr-25 12:33N 51°53' E 004°17'0 0.0
2016-Apr-25 11:33N 51°53' E 004°17'0 0.0
2016-Apr-25 10:33N 51°53' E 004°17'0 0.0
2016-Apr-25 09:33N 51°53' E 004°17'0 0.0
2016-Apr-25 08:33N 51°53' E 004°17'0 0.0
2016-Apr-25 07:33N 51°53' E 004°17'0 0.0
2016-Apr-25 06:33N 51°53' E 004°17'0 0.0
2016-Apr-25 05:33N 51°53' E 004°17'0 0.0
2016-Apr-25 04:33N 51°53' E 004°17'0 0.0
2016-Apr-25 03:33N 51°53' E 004°17'0 0.0
2016-Apr-25 02:34N 51°53' E 004°17'0 0.0
2016-Apr-25 01:33N 51°53' E 004°17'0 0.0
2016-Apr-25 00:33N 51°53' E 004°17'0 0.0
2016-Apr-24 23:33N 51°53' E 004°17'0 0.0
2016-Apr-24 22:33N 51°53' E 004°17'0 0.0
2016-Apr-24 21:33N 51°53' E 004°17'0 0.0
2016-Apr-24 20:33N 51°53' E 004°17'0 0.0
2016-Apr-24 19:33N 51°53' E 004°17'0 0.0
2016-Apr-24 18:33N 51°53' E 004°17'0 0.0
2016-Apr-24 17:33N 51°53' E 004°17'0 0.0
2016-Apr-24 16:33N 51°53' E 004°17'0 0.0
2016-Apr-24 15:33N 51°53' E 004°17'1 0.8
2016-Apr-24 14:33N 51°54' E 004°16'9 9.1
2016-Apr-24 13:34N 51°59' E 004°04'8 8.0
2016-Apr-24 12:33N 52°00' E 003°51'7 6.8
2016-Apr-24 11:33N 52°07' E 003°46'9 9.0
2016-Apr-24 10:33N 52°16' E 003°47'115 6.7
2016-Apr-23 17:22N 54°02' E 004°58'5 5.9
2016-Apr-23 16:32N 54°07' E 005°01'6 6.3
2016-Apr-23 15:33N 54°12' E 005°06'7 6.7
2016-Apr-23 14:33N 54°18' E 005°12'7 6.5
2016-Apr-23 13:32N 54°23' E 005°18'6 6.4
2016-Apr-23 12:33N 54°29' E 005°24'  

Dump ship's entire track history